Главная страница
METAR-TAF:

METAR-TAF

Аэропорты :

Фос-ду-Игуасу, Парана, Бразилия

широта: 25-31S, долгота: 054-35W, высота над уровнем моря: 180 м

Текущие метеонаблюдения

Эта сводка был подготовлена 1 час и 0 минут назад, в 22:00 UTC
Ветер 1 Узел от восточный
Температура 24°C
Влажность 83%
Давление 1014 hPa
Видимость 10 км и более
Нет облачности ниже 1500 м, и нет кучево-дождевой облачности

METAR: SBFI 262200Z 10001KT CAVOK 24/21 Q1014

Время: 20:00 (23:00 UTC)

Прогноз

Эта сводка был подготовлена 8 часа и 0 минут назад, в 15:00 UTC
Прогноз действительный с 26-го 18 UTC до 27-го 18 UTC
Ветер 6 Узел от восточный
Видимость 10 км и более
Нет облачности ниже 1500 м, и нет кучево-дождевой облачности
Вероятность 40%
С 26-го 18 UTC до 26-го 24 UTC
Ветер 8 Узел от северный

TAF: SBFI 261500Z 2618/2718 10006KT CAVOK TN21/2708Z TX32/2718Z PROB40 2618/2624 36008KT RMK PDP

Метеонаблюдения и прогнозы для более 4000 аэропортов (сводки METAR и TAF).

Имеющиеся станции представлены на карте желтыми и красными точками.

Чтобы увидеть название станции, наведите на нее мышь.

Затем щелкните, чтобы увидеть метеонаблюдения и метеопрогнозы.

Управление картой: чтобы увеличить масштаб, щелкните зеленые кнопки с черным крестиком; чтобы уменьшить масштаб, щелкните зеленую кнопку с тире; для просмотра соседних карт щелкайте зеленые стрелки.


METAR-TAF: